Time;durP1;ratioP1;P1;durP2;ratioP2;P2;SDS_P1;SDS_P2;PMS_P1;PMS_P2;Temp;Humidity;BMP_temperature;BMP_pressure;BME280_temperature;BME280_humidity;BME280_pressure;Samples;Min_cycle;Max_cycle;Signal;HPM_P1;HPM_P2
2022/06/27 00:02:09;;;;;;;9.73;4.93;;;17.70;99.90;;;;;;5054714;28;20032;-76
2022/06/27 00:04:36;;;;;;;7.15;4.97;;;17.70;99.90;;;;;;5052733;28;20048;-77
2022/06/27 00:07:03;;;;;;;6.47;4.40;;;17.60;99.90;;;;;;5067755;28;20041;-77
2022/06/27 00:09:28;;;;;;;7.82;5.03;;;17.70;99.90;;;;;;5069105;28;20037;-77
2022/06/27 00:11:55;;;;;;;10.10;4.85;;;17.70;99.90;;;;;;5072187;28;20094;-77
2022/06/27 00:14:21;;;;;;;6.70;4.90;;;17.60;99.90;;;;;;5073846;28;20051;-77
2022/06/27 00:16:47;;;;;;;9.13;5.32;;;17.60;99.90;;;;;;5074244;28;20048;-77
2022/06/27 00:19:13;;;;;;;8.32;4.85;;;17.60;99.90;;;;;;5071746;28;20412;-77
2022/06/27 00:21:38;;;;;;;8.05;5.28;;;17.60;99.90;;;;;;5073254;28;20080;-77
2022/06/27 00:24:04;;;;;;;7.90;4.82;;;17.60;99.90;;;;;;5049697;28;20124;-77
2022/06/27 00:26:30;;;;;;;7.97;4.97;;;17.60;99.90;;;;;;5056296;28;20041;-77
2022/06/27 00:28:56;;;;;;;8.73;5.40;;;17.60;99.90;;;;;;5073256;28;20078;-77
2022/06/27 00:31:21;;;;;;;10.10;4.97;;;17.60;99.90;;;;;;5070131;28;20044;-77
2022/06/27 00:33:47;;;;;;;11.18;5.55;;;17.60;99.90;;;;;;5075026;28;20169;-77
2022/06/27 00:36:13;;;;;;;8.80;5.60;;;17.50;99.90;;;;;;5073869;28;20063;-77
2022/06/27 00:38:38;;;;;;;8.77;5.60;;;17.60;99.90;;;;;;5071347;28;20066;-77
2022/06/27 00:41:04;;;;;;;10.15;5.85;;;17.50;99.90;;;;;;5055784;28;20041;-77
2022/06/27 00:43:30;;;;;;;9.55;5.90;;;17.50;99.90;;;;;;5072341;28;20044;-77
2022/06/27 00:45:56;;;;;;;7.20;5.53;;;17.60;99.90;;;;;;5072411;28;20036;-77
2022/06/27 00:48:21;;;;;;;8.90;5.47;;;17.60;99.90;;;;;;5070858;28;20114;-77
2022/06/27 00:50:47;;;;;;;8.38;5.53;;;17.50;99.90;;;;;;5072212;28;20036;-77
2022/06/27 00:53:15;;;;;;;8.48;5.43;;;17.60;99.90;;;;;;5070998;28;20508;-77
2022/06/27 00:55:41;;;;;;;8.10;5.60;;;17.50;99.90;;;;;;5069384;28;20033;-77
2022/06/27 00:58:07;;;;;;;7.47;5.60;;;17.50;99.90;;;;;;5072129;28;20381;-77
2022/06/27 01:00:33;;;;;;;6.40;4.85;;;17.50;99.90;;;;;;5072480;28;20170;-77
2022/06/27 01:02:59;;;;;;;7.22;5.43;;;17.50;99.90;;;;;;5050145;28;20032;-77
2022/06/27 01:05:25;;;;;;;9.02;5.53;;;17.50;99.90;;;;;;5047810;28;20028;-77
2022/06/27 01:07:51;;;;;;;9.10;5.40;;;17.50;99.90;;;;;;5070866;28;20066;-77
2022/06/27 01:10:16;;;;;;;8.63;5.07;;;17.50;99.90;;;;;;5070792;28;20037;-77
2022/06/27 01:12:42;;;;;;;8.30;4.85;;;17.50;99.90;;;;;;5069451;28;20044;-77
2022/06/27 01:15:10;;;;;;;7.85;5.35;;;17.50;99.90;;;;;;5051999;28;20386;-77
2022/06/27 01:17:36;;;;;;;6.38;4.80;;;17.50;99.90;;;;;;5072782;28;20045;-77
2022/06/27 01:20:02;;;;;;;8.85;4.90;;;17.40;99.90;;;;;;5068966;28;20123;-77
2022/06/27 01:22:28;;;;;;;7.15;5.13;;;17.40;99.90;;;;;;5068572;28;20049;-77
2022/06/27 01:24:54;;;;;;;8.43;5.95;;;17.40;99.90;;;;;;5070429;28;20052;-77
2022/06/27 01:27:19;;;;;;;7.15;5.70;;;17.40;99.90;;;;;;5066062;28;20044;-78
2022/06/27 01:29:46;;;;;;;8.52;5.80;;;17.40;99.90;;;;;;5071519;28;20408;-78
2022/06/27 01:32:13;;;;;;;8.63;5.55;;;17.40;99.90;;;;;;5073919;28;20044;-76
2022/06/27 01:34:39;;;;;;;9.00;6.15;;;17.40;99.90;;;;;;5071096;28;20054;-76
2022/06/27 01:37:05;;;;;;;12.32;5.68;;;17.30;99.90;;;;;;5072532;28;20032;-76
2022/06/27 01:39:31;;;;;;;9.00;6.28;;;17.40;99.90;;;;;;5064297;28;20102;-76
2022/06/27 01:41:59;;;;;;;10.95;6.07;;;17.40;99.90;;;;;;5070715;28;20040;-76
2022/06/27 01:44:27;;;;;;;8.02;5.78;;;17.40;99.90;;;;;;5071281;28;20055;-76
2022/06/27 01:47:03;;;;;;;9.23;5.95;;;17.40;99.90;;;;;;5068692;28;20036;-76
2022/06/27 01:49:31;;;;;;;7.68;5.60;;;17.40;99.90;;;;;;5067107;28;20037;-76
2022/06/27 01:51:58;;;;;;;8.05;5.50;;;17.40;99.90;;;;;;5070611;28;20037;-76
2022/06/27 01:54:24;;;;;;;9.10;5.35;;;17.30;99.90;;;;;;5072113;28;20037;-76
2022/06/27 01:56:51;;;;;;;8.90;5.40;;;17.40;99.90;;;;;;5075334;28;20037;-76
2022/06/27 01:59:20;;;;;;;7.03;5.70;;;17.40;99.90;;;;;;5072939;28;20047;-76
2022/06/27 02:01:45;;;;;;;11.95;5.80;;;17.40;99.90;;;;;;5072327;28;20561;-76
2022/06/27 02:04:12;;;;;;;7.65;5.45;;;17.40;99.90;;;;;;5074322;28;20036;-76
2022/06/27 02:06:40;;;;;;;7.47;5.47;;;17.40;99.90;;;;;;5051451;28;20082;-76
2022/06/27 02:09:09;;;;;;;10.45;5.50;;;17.40;99.90;;;;;;5073893;28;20040;-76
2022/06/27 02:11:36;;;;;;;8.00;5.57;;;17.40;99.90;;;;;;5073423;28;20041;-76
2022/06/27 02:14:03;;;;;;;7.07;5.20;;;17.30;99.90;;;;;;5070301;28;20095;-76
2022/06/27 02:16:29;;;;;;;7.53;5.30;;;17.30;99.90;;;;;;5077734;28;20040;-76
2022/06/27 02:18:54;;;;;;;6.70;5.05;;;17.30;99.90;;;;;;5075452;28;20071;-75
2022/06/27 02:21:24;;;;;;;9.38;5.55;;;17.30;99.90;;;;;;5054213;28;20037;-75
2022/06/27 02:23:51;;;;;;;7.00;5.07;;;17.40;99.90;;;;;;5054748;28;20043;-75
2022/06/27 02:26:18;;;;;;;9.70;5.40;;;17.30;99.90;;;;;;5054001;28;20063;-75
2022/06/27 02:28:43;;;;;;;11.05;6.05;;;17.30;99.90;;;;;;5069663;28;20041;-76
2022/06/27 02:31:10;;;;;;;10.57;5.95;;;17.30;99.90;;;;;;5064071;28;20063;-76
2022/06/27 02:33:48;;;;;;;7.88;5.28;;;17.30;99.90;;;;;;5068509;28;20040;-76
2022/06/27 02:36:41;;;;;;;10.18;5.28;;;17.30;99.90;;;;;;5067207;28;20064;-76
2022/06/27 02:39:16;;;;;;;7.88;6.03;;;17.30;99.90;;;;;;5066218;28;20064;-76
2022/06/27 02:41:44;;;;;;;8.07;5.30;;;17.40;99.90;;;;;;5070186;28;20048;-76
2022/06/27 02:44:12;;;;;;;8.15;5.35;;;17.30;99.90;;;;;;5041181;28;20053;-76
2022/06/27 02:46:39;;;;;;;6.90;5.40;;;17.30;99.90;;;;;;5070190;28;20563;-76
2022/06/27 02:49:05;;;;;;;6.50;5.28;;;17.20;99.90;;;;;;5069385;28;20064;-76
2022/06/27 02:51:41;;;;;;;7.30;5.28;;;17.30;99.90;;;;;;5092927;22;20052;-74
2022/06/27 02:54:24;;;;;;;6.63;5.07;;;17.30;99.90;;;;;;5077201;28;20086;-73
2022/06/27 02:56:55;;;;;;;6.22;5.30;;;17.20;99.90;;;;;;5088357;28;20052;-74
2022/06/27 02:59:26;;;;;;;7.90;5.60;;;17.30;99.90;;;;;;5083588;28;20068;-74
2022/06/27 03:01:52;;;;;;;11.00;5.60;;;17.30;99.90;;;;;;5064613;28;20112;-74
2022/06/27 03:04:18;;;;;;;7.10;5.70;;;17.30;99.90;;;;;;5055182;28;20041;-73
2022/06/27 03:06:49;;;;;;;7.30;4.93;;;17.20;99.90;;;;;;5061425;28;20063;-74
2022/06/27 03:09:15;;;;;;;10.70;5.25;;;17.20;99.90;;;;;;5059083;28;20123;-73
2022/06/27 03:11:41;;;;;;;7.97;5.28;;;17.20;99.90;;;;;;5060066;28;20450;-74
2022/06/27 03:14:07;;;;;;;6.40;5.70;;;17.20;99.90;;;;;;5053367;28;20040;-74
2022/06/27 03:16:33;;;;;;;7.15;5.40;;;17.20;99.90;;;;;;5061032;28;20124;-73
2022/06/27 03:18:58;;;;;;;8.95;5.85;;;17.20;99.90;;;;;;5068222;28;20033;-73
2022/06/27 03:21:24;;;;;;;7.50;5.43;;;17.20;99.90;;;;;;5063611;28;20032;-74
2022/06/27 03:23:50;;;;;;;8.38;5.72;;;17.20;99.90;;;;;;5050966;28;20036;-74
2022/06/27 03:26:17;;;;;;;8.65;5.63;;;17.10;99.90;;;;;;5056526;28;20438;-74
2022/06/27 03:28:46;;;;;;;8.85;5.32;;;17.10;99.90;;;;;;5064129;28;20136;-74
2022/06/27 03:31:12;;;;;;;7.40;5.65;;;17.20;99.90;;;;;;5054408;28;20083;-74
2022/06/27 03:33:39;;;;;;;8.10;5.72;;;17.20;99.90;;;;;;5060003;28;20037;-74
2022/06/27 03:36:05;;;;;;;6.97;5.30;;;17.20;99.90;;;;;;5052870;28;20748;-74
2022/06/27 03:38:31;;;;;;;8.07;5.65;;;17.20;99.90;;;;;;5057442;28;20049;-74
2022/06/27 03:40:57;;;;;;;8.85;5.78;;;17.20;99.90;;;;;;5056014;28;20045;-74
2022/06/27 03:43:23;;;;;;;13.43;5.65;;;17.10;99.90;;;;;;5037808;28;20564;-74
2022/06/27 03:45:49;;;;;;;9.07;5.75;;;17.10;99.90;;;;;;5058470;28;20063;-74
2022/06/27 03:50:59;;;;;;;8.38;6.20;;;17.20;99.90;;;;;;5056318;28;20562;-73
2022/06/27 03:53:25;;;;;;;9.25;6.82;;;17.20;99.90;;;;;;5051371;28;20029;-74
2022/06/27 03:55:51;;;;;;;8.57;6.57;;;17.20;99.90;;;;;;5066507;28;20044;-74
2022/06/27 03:58:16;;;;;;;10.10;6.68;;;17.20;99.90;;;;;;5057120;28;20468;-74
2022/06/27 04:00:42;;;;;;;9.48;6.85;;;17.20;99.90;;;;;;5063187;28;20446;-73
2022/06/27 04:03:07;;;;;;;13.02;7.18;;;17.20;99.90;;;;;;5060390;28;20057;-74
2022/06/27 04:05:33;;;;;;;8.73;7.03;;;17.20;99.90;;;;;;5057066;28;20504;-73
2022/06/27 04:07:59;;;;;;;9.75;7.47;;;17.20;99.90;;;;;;5057258;28;20420;-73
2022/06/27 04:10:24;;;;;;;9.85;8.23;;;17.20;99.90;;;;;;5066234;28;20033;-74
2022/06/27 04:12:50;;;;;;;13.80;9.00;;;17.20;99.90;;;;;;5068847;28;20036;-74
2022/06/27 04:15:16;;;;;;;11.88;8.60;;;17.20;99.90;;;;;;5059076;28;20040;-74
2022/06/27 04:17:41;;;;;;;10.50;8.95;;;17.20;99.90;;;;;;5058254;28;20043;-74
2022/06/27 04:20:08;;;;;;;10.70;8.25;;;17.20;99.90;;;;;;5071920;28;20060;-73
2022/06/27 04:22:33;;;;;;;10.60;8.98;;;17.20;99.90;;;;;;5062234;28;20337;-73
2022/06/27 04:25:00;;;;;;;12.07;9.50;;;17.20;99.90;;;;;;5060260;28;20053;-74
2022/06/27 04:27:27;;;;;;;11.07;9.02;;;17.20;99.90;;;;;;5062155;28;20037;-74
2022/06/27 04:29:53;;;;;;;10.70;8.43;;;17.20;99.90;;;;;;5061057;28;20036;-74
2022/06/27 04:32:21;;;;;;;11.73;9.18;;;17.20;99.90;;;;;;5065184;28;20037;-73
2022/06/27 04:34:48;;;;;;;11.20;9.50;;;17.20;99.90;;;;;;5063377;28;20488;-74
2022/06/27 04:37:14;;;;;;;11.20;8.70;;;17.20;99.90;;;;;;5065928;28;20036;-74
2022/06/27 04:39:40;;;;;;;10.75;9.20;;;17.20;99.90;;;;;;5056682;28;20059;-74
2022/06/27 04:42:06;;;;;;;11.35;8.95;;;17.20;99.90;;;;;;5054208;28;20032;-74
2022/06/27 04:44:36;;;;;;;10.48;8.75;;;17.20;99.90;;;;;;5055168;28;20044;-74
2022/06/27 04:47:07;;;;;;;9.57;8.57;;;17.30;99.90;;;;;;5061073;28;20609;-74
2022/06/27 04:49:33;;;;;;;11.48;8.65;;;17.20;99.90;;;;;;5057366;28;20115;-73
2022/06/27 04:51:59;;;;;;;9.20;7.82;;;17.30;99.90;;;;;;5043386;28;20566;-73
2022/06/27 04:54:26;;;;;;;9.40;7.57;;;17.30;99.90;;;;;;5035093;28;20547;-74
2022/06/27 04:56:52;;;;;;;8.77;6.90;;;17.30;99.90;;;;;;5059912;28;20037;-74
2022/06/27 04:59:22;;;;;;;8.77;6.70;;;17.20;99.90;;;;;;5055344;28;20052;-76
2022/06/27 05:01:50;;;;;;;9.07;6.40;;;17.20;99.90;;;;;;5057505;28;20048;-73
2022/06/27 05:04:17;;;;;;;7.38;5.72;;;17.20;99.90;;;;;;5062679;28;20122;-73
2022/06/27 05:06:43;;;;;;;8.77;5.60;;;17.20;99.90;;;;;;5067483;28;20041;-73
2022/06/27 05:09:09;;;;;;;10.05;6.15;;;17.30;99.90;;;;;;5071558;28;20044;-73
2022/06/27 05:11:35;;;;;;;7.47;5.78;;;17.20;99.90;;;;;;5072349;28;20097;-73
2022/06/27 05:14:00;;;;;;;9.23;6.47;;;17.30;99.90;;;;;;5075357;28;20480;-72
2022/06/27 05:16:26;;;;;;;9.30;6.22;;;17.30;99.90;;;;;;5064491;28;20036;-73
2022/06/27 05:18:51;;;;;;;9.57;6.35;;;17.20;99.90;;;;;;5070990;28;20072;-73
2022/06/27 05:21:17;;;;;;;9.52;7.13;;;17.30;99.90;;;;;;5067448;28;20036;-73
2022/06/27 05:23:43;;;;;;;8.52;6.97;;;17.30;99.90;;;;;;5064242;28;20041;-73
2022/06/27 05:26:08;;;;;;;9.07;6.65;;;17.30;99.90;;;;;;5069213;28;20519;-73
2022/06/27 05:28:34;;;;;;;8.05;6.20;;;17.40;99.90;;;;;;5069716;28;20055;-73
2022/06/27 05:31:00;;;;;;;8.10;5.90;;;17.40;99.90;;;;;;5063810;28;20488;-73
2022/06/27 05:33:25;;;;;;;9.88;5.60;;;17.40;99.90;;;;;;5064387;28;20038;-73
2022/06/27 05:35:52;;;;;;;6.30;4.85;;;17.50;99.90;;;;;;5065050;28;20044;-73
2022/06/27 05:38:18;;;;;;;6.88;5.50;;;17.60;99.90;;;;;;5063929;28;20222;-73
2022/06/27 05:40:45;;;;;;;7.82;5.47;;;17.60;99.90;;;;;;5068774;28;20561;-74
2022/06/27 05:43:13;;;;;;;6.70;5.03;;;17.70;99.90;;;;;;5066952;28;20081;-73
2022/06/27 05:45:39;;;;;;;6.03;4.70;;;17.70;99.90;;;;;;5073410;28;20048;-75
2022/06/27 05:48:06;;;;;;;5.93;4.28;;;17.70;99.90;;;;;;5060679;28;20098;-75
2022/06/27 05:50:31;;;;;;;5.18;4.10;;;17.80;99.90;;;;;;5066437;28;20407;-74
2022/06/27 05:52:59;;;;;;;6.03;3.60;;;17.70;99.90;;;;;;5069566;28;20045;-75
2022/06/27 05:55:25;;;;;;;5.20;3.92;;;17.80;99.90;;;;;;5066406;28;20504;-75
2022/06/27 05:57:54;;;;;;;6.00;3.85;;;17.80;99.90;;;;;;5065485;28;20051;-75
2022/06/27 06:00:21;;;;;;;4.35;3.60;;;17.80;99.90;;;;;;5042752;28;20358;-75
2022/06/27 06:02:47;;;;;;;5.63;3.60;;;17.80;99.90;;;;;;5070233;28;20044;-75
2022/06/27 06:05:14;;;;;;;5.22;3.67;;;17.80;99.90;;;;;;5064643;28;20511;-75
2022/06/27 06:07:42;;;;;;;4.85;3.45;;;17.80;99.90;;;;;;5067262;28;20052;-75
2022/06/27 06:10:08;;;;;;;5.65;3.63;;;17.80;99.90;;;;;;5076984;28;20072;-75
2022/06/27 06:12:34;;;;;;;5.32;3.50;;;17.70;99.90;;;;;;5061712;28;20064;-75
2022/06/27 06:15:02;;;;;;;6.05;3.50;;;17.70;99.90;;;;;;5067365;28;20036;-75
2022/06/27 06:17:29;;;;;;;4.68;3.88;;;17.70;99.90;;;;;;5055023;28;20123;-75
2022/06/27 06:19:55;;;;;;;6.05;3.50;;;17.70;99.90;;;;;;5065721;28;20162;-74
2022/06/27 06:22:21;;;;;;;6.50;3.78;;;17.70;99.90;;;;;;5067318;28;20098;-74
2022/06/27 06:24:50;;;;;;;5.53;3.70;;;17.70;99.90;;;;;;5074436;28;21393;-74
2022/06/27 06:27:17;;;;;;;5.15;3.60;;;17.80;99.90;;;;;;5066977;28;20349;-74
2022/06/27 06:29:43;;;;;;;5.43;3.78;;;17.60;99.90;;;;;;5048450;28;20068;-74
2022/06/27 06:32:09;;;;;;;4.00;3.00;;;17.60;99.90;;;;;;5048231;28;20088;-76
2022/06/27 06:34:35;;;;;;;4.22;3.13;;;17.70;99.90;;;;;;5064613;28;20087;-76
2022/06/27 06:37:02;;;;;;;5.07;3.47;;;17.60;99.90;;;;;;5076215;28;20036;-76
2022/06/27 06:39:28;;;;;;;5.35;3.05;;;17.60;99.90;;;;;;5053018;28;20064;-75
2022/06/27 06:41:54;;;;;;;4.05;2.95;;;17.60;99.90;;;;;;5067634;28;20048;-76
2022/06/27 06:44:21;;;;;;;4.13;3.35;;;17.60;99.90;;;;;;5054527;28;20447;-76
2022/06/27 06:46:47;;;;;;;4.30;3.30;;;17.60;99.90;;;;;;5070458;28;20123;-76
2022/06/27 06:49:13;;;;;;;4.22;3.13;;;17.60;99.90;;;;;;5062656;28;20047;-75
2022/06/27 06:51:42;;;;;;;3.93;3.10;;;17.60;99.90;;;;;;5034905;28;1063449;-76
2022/06/27 06:54:12;;;;;;;5.10;3.03;;;17.60;99.90;;;;;;5062491;28;20116;-75
2022/06/27 06:56:38;;;;;;;5.50;3.30;;;17.60;99.90;;;;;;5061336;28;20055;-75
2022/06/27 06:59:05;;;;;;;8.27;4.13;;;17.60;99.90;;;;;;5062251;28;20395;-75
2022/06/27 07:01:35;;;;;;;5.55;3.70;;;17.70;99.90;;;;;;5047077;28;20102;-75
2022/06/27 07:04:02;;;;;;;4.13;3.60;;;17.70;99.90;;;;;;5066991;28;20072;-75
2022/06/27 07:06:29;;;;;;;5.47;4.15;;;17.70;99.90;;;;;;5060410;28;20471;-75
2022/06/27 07:08:56;;;;;;;4.88;4.18;;;17.60;99.90;;;;;;5058101;28;20062;-75
2022/06/27 07:11:23;;;;;;;5.38;3.80;;;17.60;99.90;;;;;;5071456;28;20081;-75
2022/06/27 07:13:51;;;;;;;4.82;3.65;;;17.70;99.90;;;;;;5060613;28;20111;-75
2022/06/27 07:16:20;;;;;;;5.72;3.80;;;17.70;99.90;;;;;;5057635;28;20040;-75
2022/06/27 07:18:46;;;;;;;5.47;3.70;;;17.70;99.90;;;;;;5063641;28;20052;-75
2022/06/27 07:21:13;;;;;;;3.70;3.20;;;17.80;99.90;;;;;;5046219;28;20089;-75
2022/06/27 07:23:39;;;;;;;4.35;3.30;;;17.80;99.90;;;;;;5064689;28;20061;-75
2022/06/27 07:26:05;;;;;;;5.57;3.55;;;17.80;99.90;;;;;;5060176;28;20131;-75
2022/06/27 07:28:31;;;;;;;5.18;3.40;;;17.80;99.90;;;;;;5065058;28;20082;-75
2022/06/27 07:30:58;;;;;;;7.40;4.15;;;17.80;99.90;;;;;;5075964;28;20035;-75
2022/06/27 07:33:25;;;;;;;5.03;3.42;;;17.80;99.90;;;;;;5070651;28;20511;-75
2022/06/27 07:35:50;;;;;;;4.70;3.20;;;17.80;99.90;;;;;;5066414;28;20059;-75
2022/06/27 07:38:16;;;;;;;3.95;3.40;;;17.80;99.90;;;;;;5055799;28;20089;-75
2022/06/27 07:40:42;;;;;;;5.43;3.40;;;17.80;99.90;;;;;;5074697;28;20048;-75
2022/06/27 07:43:09;;;;;;;4.40;3.47;;;17.80;99.90;;;;;;5070618;28;20037;-75
2022/06/27 07:45:38;;;;;;;4.00;3.28;;;17.80;99.90;;;;;;5072818;28;20051;-75
2022/06/27 07:48:05;;;;;;;5.75;3.55;;;17.90;99.90;;;;;;5066404;28;20045;-80
2022/06/27 07:50:37;;;;;;;3.88;3.10;;;18.00;99.90;;;;;;5051846;28;20039;-77
2022/06/27 07:53:13;;;;;;;8.60;3.50;;;18.10;99.90;;;;;;5061300;28;20043;-78
2022/06/27 07:55:43;;;;;;;4.72;3.22;;;18.10;99.90;;;;;;5043051;28;20409;-78
2022/06/27 07:58:15;;;;;;;4.15;3.15;;;18.20;99.90;;;;;;5057219;28;20072;-78
2022/06/27 08:00:45;;;;;;;5.43;3.20;;;18.20;99.90;;;;;;5066693;28;20036;-77
2022/06/27 08:05:57;;;;;;;4.28;3.05;;;18.40;99.90;;;;;;5061417;28;20048;-77
2022/06/27 08:08:23;;;;;;;4.65;3.03;;;18.50;99.90;;;;;;5063042;28;20056;-78
2022/06/27 08:10:50;;;;;;;4.80;3.20;;;18.60;99.90;;;;;;5069321;28;20078;-77
2022/06/27 08:13:16;;;;;;;3.80;2.72;;;18.60;99.90;;;;;;5068258;28;20388;-78
2022/06/27 08:15:42;;;;;;;5.32;3.25;;;18.70;99.90;;;;;;5062969;28;20041;-78
2022/06/27 08:18:09;;;;;;;5.20;3.45;;;18.70;99.90;;;;;;5065238;28;20044;-78
2022/06/27 08:20:35;;;;;;;4.88;3.25;;;18.80;99.90;;;;;;5064390;28;20413;-76
2022/06/27 08:23:02;;;;;;;4.97;3.40;;;18.80;99.90;;;;;;5061480;28;20052;-77
2022/06/27 08:25:28;;;;;;;5.85;3.58;;;18.80;99.90;;;;;;5056076;28;20557;-75
2022/06/27 08:27:55;;;;;;;6.93;3.83;;;18.80;99.90;;;;;;5060063;28;20469;-75
2022/06/27 08:30:25;;;;;;;5.47;4.00;;;18.80;99.90;;;;;;5071670;28;20036;-75
2022/06/27 08:32:55;;;;;;;4.07;3.58;;;18.70;99.90;;;;;;5069567;28;20032;-75
2022/06/27 08:35:22;;;;;;;4.55;3.30;;;18.60;99.90;;;;;;5081814;28;20037;-76
2022/06/27 08:37:50;;;;;;;4.85;3.90;;;18.70;99.90;;;;;;5061112;28;20036;-75
2022/06/27 08:40:17;;;;;;;5.25;3.88;;;18.60;99.90;;;;;;5070046;28;20392;-75
2022/06/27 08:42:47;;;;;;;6.25;3.65;;;18.70;99.90;;;;;;5069335;28;20049;-74
2022/06/27 08:45:19;;;;;;;5.07;4.00;;;18.70;99.90;;;;;;5069368;28;20545;-74
2022/06/27 08:47:46;;;;;;;;;;;18.70;99.90;;;;;;5062288;28;20132;-74
2022/06/27 08:50:14;;;;;;;4.80;3.63;;;18.80;99.90;;;;;;5066049;28;20394;-74
2022/06/27 08:52:40;;;;;;;5.13;3.47;;;18.90;99.90;;;;;;5062160;22;20041;-62
2022/06/27 08:55:09;;;;;;;5.75;3.47;;;19.00;99.90;;;;;;5027257;28;20507;-62
2022/06/27 08:57:36;;;;;;;4.75;3.25;;;19.30;99.90;;;;;;5025505;28;20045;-66
2022/06/27 09:00:06;;;;;;;4.25;3.10;;;19.40;99.90;;;;;;5031064;28;20546;-62
2022/06/27 09:02:33;;;;;;;4.95;3.33;;;19.60;99.90;;;;;;5022186;28;20070;-62
2022/06/27 09:05:02;;;;;;;4.97;3.03;;;19.70;99.90;;;;;;5020829;28;20039;-62
2022/06/27 09:07:48;;;;;;;5.55;3.70;;;19.70;99.90;;;;;;5021505;28;20037;-66
2022/06/27 09:10:51;;;;;;;5.75;3.35;;;19.70;99.90;;;;;;5029687;28;20068;-63
2022/06/27 09:13:18;;;;;;;7.10;3.75;;;19.60;99.90;;;;;;5032030;28;20037;-62
2022/06/27 09:15:52;;;;;;;5.07;3.40;;;19.50;99.90;;;;;;5027178;28;20077;-61
2022/06/27 09:18:21;;;;;;;4.75;3.60;;;19.40;99.90;;;;;;5033706;28;20049;-63
2022/06/27 09:20:55;;;;;;;4.80;3.50;;;19.30;99.90;;;;;;5031759;28;20048;-62
2022/06/27 09:23:42;;;;;;;6.18;3.25;;;19.30;99.90;;;;;;5007700;28;20054;-62
2022/06/27 09:26:31;;;;;;;4.05;3.00;;;19.20;99.90;;;;;;5028226;28;20041;-64
2022/06/27 09:29:04;;;;;;;4.18;2.88;;;19.20;99.90;;;;;;5021917;28;20131;-65
2022/06/27 09:31:45;;;;;;;4.75;2.65;;;19.20;99.90;;;;;;5017367;28;20073;-62
2022/06/27 09:34:16;;;;;;;7.47;3.10;;;19.20;99.90;;;;;;5026042;28;20048;-63
2022/06/27 09:36:48;;;;;;;3.58;2.90;;;19.30;99.90;;;;;;5023128;28;20049;-62
2022/06/27 09:39:32;;;;;;;4.75;3.20;;;19.30;99.90;;;;;;5023149;28;20049;-62
2022/06/27 09:42:02;;;;;;;4.07;2.95;;;19.40;99.90;;;;;;5024866;28;20440;-67
2022/06/27 09:44:41;;;;;;;3.88;2.88;;;19.40;99.90;;;;;;5025284;28;20034;-62
2022/06/27 09:47:24;;;;;;;5.22;3.50;;;19.40;99.90;;;;;;5032473;28;20064;-62
2022/06/27 09:49:54;;;;;;;4.03;3.05;;;19.40;99.90;;;;;;5021359;28;20042;-62
2022/06/27 09:52:23;;;;;;;4.45;3.08;;;19.40;99.90;;;;;;5025550;28;20387;-62
2022/06/27 09:54:52;;;;;;;4.97;3.25;;;19.40;99.90;;;;;;5024600;28;20063;-64
2022/06/27 09:57:19;;;;;;;6.07;3.60;;;19.50;99.90;;;;;;5026011;28;20069;-63
2022/06/27 09:59:47;;;;;;;4.65;3.50;;;19.40;99.90;;;;;;5026958;28;20033;-61
2022/06/27 10:02:16;;;;;;;4.82;3.17;;;19.50;99.90;;;;;;5025850;28;20038;-62
2022/06/27 10:04:46;;;;;;;4.38;3.40;;;19.40;99.90;;;;;;5018285;28;20034;-62
2022/06/27 10:07:14;;;;;;;5.13;3.92;;;19.50;99.90;;;;;;5022456;28;20395;-63
2022/06/27 10:09:41;;;;;;;4.03;3.35;;;19.50;99.90;;;;;;5015746;28;20496;-63
2022/06/27 10:12:36;;;;;;;5.85;3.50;;;19.50;99.90;;;;;;5022463;28;20124;-65
2022/06/27 10:15:10;;;;;;;5.72;3.75;;;19.40;99.90;;;;;;5031176;28;20395;-65
2022/06/27 10:17:37;;;;;;;7.40;4.45;;;19.40;99.90;;;;;;5029193;28;20048;-63
2022/06/27 10:20:31;;;;;;;5.70;3.88;;;19.40;99.90;;;;;;5024297;28;20483;-66
2022/06/27 10:23:03;;;;;;;8.90;4.30;;;19.30;99.90;;;;;;5003353;28;20053;-62
2022/06/27 10:25:29;;;;;;;5.25;4.07;;;19.30;99.90;;;;;;5030112;28;20046;-62
2022/06/27 10:28:14;;;;;;;5.93;3.40;;;19.30;99.90;;;;;;5018884;28;20049;-62
2022/06/27 10:30:45;;;;;;;4.88;3.55;;;19.30;99.90;;;;;;5018420;28;20100;-63
2022/06/27 10:33:23;;;;;;;4.20;3.30;;;19.20;99.90;;;;;;5028711;28;20047;-63
2022/06/27 10:35:54;;;;;;;4.50;3.55;;;19.30;99.90;;;;;;5025820;28;20052;-63
2022/06/27 10:38:47;;;;;;;5.78;3.47;;;19.30;99.90;;;;;;5015275;28;20042;-63
2022/06/27 10:41:18;;;;;;;4.78;3.72;;;19.30;99.90;;;;;;5021838;28;20136;-63
2022/06/27 10:43:48;;;;;;;6.85;3.10;;;19.30;99.90;;;;;;5026563;28;20683;-63
2022/06/27 10:46:13;;;;;;;4.60;3.30;;;19.30;99.90;;;;;;5028312;28;20072;-62
2022/06/27 10:49:06;;;;;;;6.00;3.60;;;19.30;99.90;;;;;;5016010;28;20469;-62
2022/06/27 10:51:34;;;;;;;4.22;3.38;;;19.30;99.90;;;;;;5015957;28;20053;-62
2022/06/27 10:54:06;;;;;;;5.93;3.40;;;19.30;99.90;;;;;;5020220;28;20046;-62
2022/06/27 10:56:34;;;;;;;5.32;3.55;;;19.30;99.90;;;;;;5023214;28;20113;-62
2022/06/27 10:59:15;;;;;;;5.60;4.05;;;19.40;99.90;;;;;;5021371;28;20108;-62
2022/06/27 11:01:50;;;;;;;6.32;4.13;;;19.40;99.90;;;;;;5016487;28;20056;-63
2022/06/27 11:04:26;;;;;;;5.97;3.70;;;19.40;99.90;;;;;;5017910;28;20041;-63
2022/06/27 11:06:57;;;;;;;7.22;4.05;;;19.50;99.90;;;;;;5025608;28;20045;-62
2022/06/27 11:09:38;;;;;;;5.95;3.53;;;19.60;99.90;;;;;;5019519;28;20030;-63
2022/06/27 11:12:07;;;;;;;5.50;3.70;;;19.70;99.90;;;;;;5019253;28;20120;-63
2022/06/27 11:14:43;;;;;;;4.25;3.53;;;19.70;99.90;;;;;;5023643;28;20069;-65
2022/06/27 11:17:39;;;;;;;5.68;4.20;;;19.70;99.90;;;;;;5027650;28;20033;-64
2022/06/27 11:20:09;;;;;;;6.78;3.72;;;19.70;99.90;;;;;;5027083;28;20487;-63
2022/06/27 11:22:36;;;;;;;6.60;4.55;;;19.80;99.90;;;;;;5031177;28;20052;-67
2022/06/27 11:25:02;;;;;;;8.32;4.00;;;19.90;99.90;;;;;;5030975;28;20071;-63
2022/06/27 11:27:50;;;;;;;6.00;4.47;;;20.00;99.90;;;;;;5019300;28;20037;-66
2022/06/27 11:33:16;;;;;;;6.63;4.10;;;20.10;99.90;;;;;;5020462;28;20046;-63
2022/06/27 11:35:42;;;;;;;6.50;4.00;;;20.20;99.90;;;;;;5026506;28;20041;-63
2022/06/27 11:38:08;;;;;;;6.40;4.30;;;20.30;99.90;;;;;;5036962;28;20052;-65
2022/06/27 11:40:34;;;;;;;6.97;4.43;;;20.40;99.90;;;;;;5022286;28;20037;-63
2022/06/27 11:43:00;;;;;;;5.82;3.97;;;20.40;99.90;;;;;;5028778;28;20048;-64
2022/06/27 11:45:26;;;;;;;6.20;4.43;;;20.40;99.90;;;;;;5024750;28;20045;-67
2022/06/27 11:47:51;;;;;;;8.27;5.18;;;20.40;99.90;;;;;;5022118;28;20396;-62
2022/06/27 11:50:19;;;;;;;6.47;4.00;;;20.40;99.90;;;;;;5028293;28;20128;-63
2022/06/27 11:52:49;;;;;;;6.07;4.40;;;20.30;99.90;;;;;;5023877;28;20056;-63
2022/06/27 11:55:20;;;;;;;6.43;3.88;;;20.30;99.90;;;;;;5020149;28;20416;-64
2022/06/27 11:57:51;;;;;;;6.30;3.78;;;20.30;99.90;;;;;;5025955;28;20041;-63
2022/06/27 12:00:35;;;;;;;4.25;3.15;;;20.40;99.90;;;;;;5034840;28;20128;-63
2022/06/27 12:03:09;;;;;;;6.93;4.57;;;20.60;99.90;;;;;;5022052;28;20045;-63
2022/06/27 12:05:36;;;;;;;5.82;4.63;;;20.70;99.90;;;;;;5023964;28;21773;-68
2022/06/27 12:08:06;;;;;;;9.23;5.75;;;20.70;99.90;;;;;;5031099;28;20124;-63
2022/06/27 12:13:36;;;;;;;8.48;4.85;;;20.80;99.90;;;;;;5029529;28;20073;-63
2022/06/27 12:16:03;;;;;;;6.88;4.30;;;20.90;99.90;;;;;;5031686;28;20080;-63
2022/06/27 12:18:37;;;;;;;6.38;4.57;;;21.00;99.90;;;;;;5035835;28;20056;-68
2022/06/27 12:21:03;;;;;;;6.78;4.30;;;21.10;99.90;;;;;;5033352;28;20094;-67
2022/06/27 12:23:29;;;;;;;4.78;3.75;;;21.20;99.90;;;;;;5031994;28;20044;-63
2022/06/27 12:25:55;;;;;;;5.20;3.95;;;21.40;99.90;;;;;;5038433;28;20455;-64
2022/06/27 12:28:21;;;;;;;9.38;4.28;;;21.50;99.90;;;;;;5029604;28;20172;-67
2022/06/27 12:30:46;;;;;;;9.60;4.30;;;21.50;99.90;;;;;;5034920;28;20053;-63
2022/06/27 12:33:12;;;;;;;9.80;3.83;;;21.50;99.90;;;;;;5029203;28;20408;-63
2022/06/27 12:35:37;;;;;;;5.97;3.83;;;21.50;99.90;;;;;;5031595;28;20038;-63
2022/06/27 12:38:04;;;;;;;6.43;3.53;;;21.50;99.90;;;;;;5024969;28;20049;-65
2022/06/27 12:40:30;;;;;;;6.38;3.75;;;21.50;99.90;;;;;;5038159;28;20405;-63
2022/06/27 12:42:56;;;;;;;7.10;4.00;;;21.50;99.90;;;;;;5035452;28;20124;-63
2022/06/27 12:45:22;;;;;;;4.50;3.45;;;21.50;99.90;;;;;;5024369;28;20141;-63
2022/06/27 12:47:47;;;;;;;7.18;4.15;;;21.50;99.90;;;;;;5023410;28;20543;-66
2022/06/27 12:50:13;;;;;;;6.90;3.42;;;21.40;99.90;;;;;;5031238;28;20141;-65
2022/06/27 12:52:39;;;;;;;7.85;3.83;;;21.40;99.90;;;;;;5039009;28;20139;-63
2022/06/27 12:55:05;;;;;;;5.60;3.75;;;21.40;99.90;;;;;;5010687;28;20056;-62
2022/06/27 12:57:31;;;;;;;7.30;4.00;;;21.30;99.90;;;;;;5033684;28;20033;-63
2022/06/27 12:59:56;;;;;;;6.55;3.38;;;21.20;99.90;;;;;;5043013;28;20033;-63
2022/06/27 13:02:22;;;;;;;6.88;3.30;;;21.20;99.90;;;;;;5030914;28;20040;-64
2022/06/27 13:04:48;;;;;;;7.18;3.67;;;21.10;99.90;;;;;;5019705;28;20032;-66